sensor_id;sensor_type;location;lat;lon;timestamp;P1;durP1;ratioP1;P2;durP2;ratioP2
5149;SDS011;2593;52.466;13.436;2023-04-08T00:00:15;22.60;;;13.10;;
5149;SDS011;2593;52.466;13.436;2023-04-08T00:02:41;27.23;;;15.53;;
5149;SDS011;2593;52.466;13.436;2023-04-08T00:05:07;25.40;;;14.90;;
5149;SDS011;2593;52.466;13.436;2023-04-08T00:07:33;34.00;;;16.80;;
5149;SDS011;2593;52.466;13.436;2023-04-08T00:09:59;29.00;;;16.63;;
5149;SDS011;2593;52.466;13.436;2023-04-08T00:12:25;30.70;;;17.10;;
5149;SDS011;2593;52.466;13.436;2023-04-08T00:14:50;30.53;;;16.70;;
5149;SDS011;2593;52.466;13.436;2023-04-08T00:17:16;29.80;;;16.73;;
5149;SDS011;2593;52.466;13.436;2023-04-08T00:19:42;33.77;;;16.43;;
5149;SDS011;2593;52.466;13.436;2023-04-08T00:22:08;32.30;;;17.00;;
5149;SDS011;2593;52.466;13.436;2023-04-08T00:24:35;31.00;;;16.43;;
5149;SDS011;2593;52.466;13.436;2023-04-08T00:27:00;34.40;;;19.47;;
5149;SDS011;2593;52.466;13.436;2023-04-08T00:29:26;35.50;;;17.17;;
5149;SDS011;2593;52.466;13.436;2023-04-08T00:31:52;38.57;;;18.87;;
5149;SDS011;2593;52.466;13.436;2023-04-08T00:34:18;35.10;;;18.93;;
5149;SDS011;2593;52.466;13.436;2023-04-08T00:36:44;32.90;;;18.40;;
5149;SDS011;2593;52.466;13.436;2023-04-08T00:39:11;44.40;;;19.20;;
5149;SDS011;2593;52.466;13.436;2023-04-08T00:41:38;44.37;;;20.80;;
5149;SDS011;2593;52.466;13.436;2023-04-08T00:44:03;46.17;;;20.23;;
5149;SDS011;2593;52.466;13.436;2023-04-08T00:46:30;42.03;;;20.20;;
5149;SDS011;2593;52.466;13.436;2023-04-08T00:48:59;42.67;;;20.50;;
5149;SDS011;2593;52.466;13.436;2023-04-08T00:51:27;40.83;;;20.60;;
5149;SDS011;2593;52.466;13.436;2023-04-08T00:53:53;47.00;;;23.67;;
5149;SDS011;2593;52.466;13.436;2023-04-08T00:56:19;42.70;;;21.70;;
5149;SDS011;2593;52.466;13.436;2023-04-08T00:58:46;47.03;;;21.50;;
5149;SDS011;2593;52.466;13.436;2023-04-08T01:01:58;44.53;;;22.40;;
5149;SDS011;2593;52.466;13.436;2023-04-08T01:04:04;65.33;;;21.97;;
5149;SDS011;2593;52.466;13.436;2023-04-08T01:06:39;48.23;;;22.93;;
5149;SDS011;2593;52.466;13.436;2023-04-08T01:09:12;48.03;;;23.23;;
5149;SDS011;2593;52.466;13.436;2023-04-08T01:11:42;49.23;;;23.10;;
5149;SDS011;2593;52.466;13.436;2023-04-08T01:14:10;44.57;;;23.03;;
5149;SDS011;2593;52.466;13.436;2023-04-08T01:16:43;55.50;;;24.87;;
5149;SDS011;2593;52.466;13.436;2023-04-08T01:19:12;60.70;;;24.90;;
5149;SDS011;2593;52.466;13.436;2023-04-08T01:21:51;63.40;;;26.00;;
5149;SDS011;2593;52.466;13.436;2023-04-08T01:24:27;64.03;;;26.40;;
5149;SDS011;2593;52.466;13.436;2023-04-08T01:26:55;58.93;;;25.53;;
5149;SDS011;2593;52.466;13.436;2023-04-08T01:29:22;59.70;;;26.33;;
5149;SDS011;2593;52.466;13.436;2023-04-08T01:31:50;58.70;;;26.40;;
5149;SDS011;2593;52.466;13.436;2023-04-08T01:34:17;76.23;;;26.73;;
5149;SDS011;2593;52.466;13.436;2023-04-08T01:36:45;69.50;;;27.40;;
5149;SDS011;2593;52.466;13.436;2023-04-08T01:39:12;71.20;;;27.70;;
5149;SDS011;2593;52.466;13.436;2023-04-08T01:41:41;65.17;;;27.87;;
5149;SDS011;2593;52.466;13.436;2023-04-08T01:44:07;68.77;;;26.87;;
5149;SDS011;2593;52.466;13.436;2023-04-08T01:46:34;61.40;;;26.77;;
5149;SDS011;2593;52.466;13.436;2023-04-08T01:49:00;61.90;;;27.00;;
5149;SDS011;2593;52.466;13.436;2023-04-08T01:51:26;69.77;;;30.40;;
5149;SDS011;2593;52.466;13.436;2023-04-08T01:53:53;62.50;;;27.27;;
5149;SDS011;2593;52.466;13.436;2023-04-08T01:56:19;64.77;;;27.80;;
5149;SDS011;2593;52.466;13.436;2023-04-08T01:58:50;57.33;;;25.87;;
5149;SDS011;2593;52.466;13.436;2023-04-08T02:01:19;71.40;;;27.80;;
5149;SDS011;2593;52.466;13.436;2023-04-08T02:03:47;81.03;;;29.23;;
5149;SDS011;2593;52.466;13.436;2023-04-08T02:06:16;72.40;;;29.23;;
5149;SDS011;2593;52.466;13.436;2023-04-08T02:08:41;64.53;;;27.67;;
5149;SDS011;2593;52.466;13.436;2023-04-08T02:11:07;80.33;;;30.17;;
5149;SDS011;2593;52.466;13.436;2023-04-08T02:13:33;66.63;;;27.90;;
5149;SDS011;2593;52.466;13.436;2023-04-08T02:16:03;71.03;;;29.13;;
5149;SDS011;2593;52.466;13.436;2023-04-08T02:18:37;75.63;;;27.37;;
5149;SDS011;2593;52.466;13.436;2023-04-08T02:21:10;72.97;;;27.43;;
5149;SDS011;2593;52.466;13.436;2023-04-08T02:23:40;59.67;;;26.77;;
5149;SDS011;2593;52.466;13.436;2023-04-08T02:26:07;67.53;;;29.17;;
5149;SDS011;2593;52.466;13.436;2023-04-08T02:28:38;77.90;;;29.03;;
5149;SDS011;2593;52.466;13.436;2023-04-08T02:31:07;67.27;;;28.23;;
5149;SDS011;2593;52.466;13.436;2023-04-08T02:33:37;70.10;;;30.03;;
5149;SDS011;2593;52.466;13.436;2023-04-08T02:36:04;69.07;;;29.87;;
5149;SDS011;2593;52.466;13.436;2023-04-08T02:38:30;68.03;;;28.20;;
5149;SDS011;2593;52.466;13.436;2023-04-08T02:40:56;73.73;;;31.07;;
5149;SDS011;2593;52.466;13.436;2023-04-08T02:43:22;65.20;;;29.63;;
5149;SDS011;2593;52.466;13.436;2023-04-08T02:45:56;67.97;;;28.10;;
5149;SDS011;2593;52.466;13.436;2023-04-08T02:48:23;63.53;;;27.83;;
5149;SDS011;2593;52.466;13.436;2023-04-08T02:50:48;71.40;;;29.63;;
5149;SDS011;2593;52.466;13.436;2023-04-08T02:53:14;76.40;;;30.70;;
5149;SDS011;2593;52.466;13.436;2023-04-08T02:55:40;77.50;;;29.40;;
5149;SDS011;2593;52.466;13.436;2023-04-08T02:58:05;68.53;;;27.50;;
5149;SDS011;2593;52.466;13.436;2023-04-08T03:00:31;71.80;;;29.67;;
5149;SDS011;2593;52.466;13.436;2023-04-08T03:02:56;79.20;;;31.23;;
5149;SDS011;2593;52.466;13.436;2023-04-08T03:05:22;75.20;;;31.87;;
5149;SDS011;2593;52.466;13.436;2023-04-08T03:07:50;84.37;;;33.33;;
5149;SDS011;2593;52.466;13.436;2023-04-08T03:10:16;70.30;;;31.17;;
5149;SDS011;2593;52.466;13.436;2023-04-08T03:12:42;72.23;;;29.20;;
5149;SDS011;2593;52.466;13.436;2023-04-08T03:15:07;68.30;;;30.90;;
5149;SDS011;2593;52.466;13.436;2023-04-08T03:17:33;85.13;;;29.20;;
5149;SDS011;2593;52.466;13.436;2023-04-08T03:19:59;78.50;;;30.90;;
5149;SDS011;2593;52.466;13.436;2023-04-08T03:22:28;85.70;;;32.53;;
5149;SDS011;2593;52.466;13.436;2023-04-08T03:24:53;71.90;;;30.40;;
5149;SDS011;2593;52.466;13.436;2023-04-08T03:27:19;80.10;;;31.53;;
5149;SDS011;2593;52.466;13.436;2023-04-08T03:29:45;82.93;;;33.37;;
5149;SDS011;2593;52.466;13.436;2023-04-08T03:32:11;77.47;;;31.50;;
5149;SDS011;2593;52.466;13.436;2023-04-08T03:34:36;78.43;;;31.47;;
5149;SDS011;2593;52.466;13.436;2023-04-08T03:37:02;77.70;;;30.93;;
5149;SDS011;2593;52.466;13.436;2023-04-08T03:39:27;85.50;;;32.97;;
5149;SDS011;2593;52.466;13.436;2023-04-08T03:41:53;101.23;;;32.27;;
5149;SDS011;2593;52.466;13.436;2023-04-08T03:44:19;89.07;;;33.53;;
5149;SDS011;2593;52.466;13.436;2023-04-08T03:46:44;80.17;;;30.47;;
5149;SDS011;2593;52.466;13.436;2023-04-08T03:49:10;85.60;;;35.40;;
5149;SDS011;2593;52.466;13.436;2023-04-08T03:51:36;83.97;;;33.70;;
5149;SDS011;2593;52.466;13.436;2023-04-08T03:54:01;81.67;;;33.40;;
5149;SDS011;2593;52.466;13.436;2023-04-08T03:56:27;86.93;;;32.07;;
5149;SDS011;2593;52.466;13.436;2023-04-08T03:58:52;85.63;;;34.97;;
5149;SDS011;2593;52.466;13.436;2023-04-08T04:01:18;96.90;;;34.13;;
5149;SDS011;2593;52.466;13.436;2023-04-08T04:03:44;83.67;;;33.33;;
5149;SDS011;2593;52.466;13.436;2023-04-08T04:06:09;83.00;;;32.00;;
5149;SDS011;2593;52.466;13.436;2023-04-08T04:08:35;92.30;;;32.90;;
5149;SDS011;2593;52.466;13.436;2023-04-08T04:11:01;88.70;;;33.17;;
5149;SDS011;2593;52.466;13.436;2023-04-08T04:13:26;85.73;;;33.77;;
5149;SDS011;2593;52.466;13.436;2023-04-08T04:15:52;80.63;;;32.63;;
5149;SDS011;2593;52.466;13.436;2023-04-08T04:18:17;89.53;;;33.30;;
5149;SDS011;2593;52.466;13.436;2023-04-08T04:20:43;92.37;;;32.13;;
5149;SDS011;2593;52.466;13.436;2023-04-08T04:23:09;90.90;;;32.57;;
5149;SDS011;2593;52.466;13.436;2023-04-08T04:25:34;96.20;;;34.60;;
5149;SDS011;2593;52.466;13.436;2023-04-08T04:28:00;114.30;;;33.07;;
5149;SDS011;2593;52.466;13.436;2023-04-08T04:30:27;94.90;;;34.23;;
5149;SDS011;2593;52.466;13.436;2023-04-08T04:32:52;95.40;;;34.57;;
5149;SDS011;2593;52.466;13.436;2023-04-08T04:35:18;108.27;;;34.73;;
5149;SDS011;2593;52.466;13.436;2023-04-08T04:37:44;101.23;;;36.67;;
5149;SDS011;2593;52.466;13.436;2023-04-08T04:40:09;102.57;;;36.10;;
5149;SDS011;2593;52.466;13.436;2023-04-08T04:42:35;90.07;;;35.03;;
5149;SDS011;2593;52.466;13.436;2023-04-08T04:45:01;93.33;;;34.63;;
5149;SDS011;2593;52.466;13.436;2023-04-08T04:47:26;100.67;;;33.30;;
5149;SDS011;2593;52.466;13.436;2023-04-08T04:49:52;94.37;;;35.07;;
5149;SDS011;2593;52.466;13.436;2023-04-08T04:52:18;91.33;;;36.03;;
5149;SDS011;2593;52.466;13.436;2023-04-08T04:54:43;85.57;;;34.70;;
5149;SDS011;2593;52.466;13.436;2023-04-08T04:57:09;79.67;;;35.00;;
5149;SDS011;2593;52.466;13.436;2023-04-08T04:59:35;96.37;;;34.50;;
5149;SDS011;2593;52.466;13.436;2023-04-08T05:02:01;82.63;;;33.23;;
5149;SDS011;2593;52.466;13.436;2023-04-08T05:04:27;77.23;;;32.60;;
5149;SDS011;2593;52.466;13.436;2023-04-08T05:06:53;105.47;;;36.53;;
5149;SDS011;2593;52.466;13.436;2023-04-08T05:09:18;103.40;;;35.73;;
5149;SDS011;2593;52.466;13.436;2023-04-08T05:11:44;83.10;;;35.27;;
5149;SDS011;2593;52.466;13.436;2023-04-08T05:14:10;92.80;;;34.93;;
5149;SDS011;2593;52.466;13.436;2023-04-08T05:16:36;93.90;;;34.07;;
5149;SDS011;2593;52.466;13.436;2023-04-08T05:19:02;85.73;;;35.37;;
5149;SDS011;2593;52.466;13.436;2023-04-08T05:21:28;89.63;;;36.70;;
5149;SDS011;2593;52.466;13.436;2023-04-08T05:23:54;106.13;;;35.33;;
5149;SDS011;2593;52.466;13.436;2023-04-08T05:26:20;83.90;;;32.53;;
5149;SDS011;2593;52.466;13.436;2023-04-08T05:28:46;94.80;;;35.43;;
5149;SDS011;2593;52.466;13.436;2023-04-08T05:31:14;98.10;;;37.70;;
5149;SDS011;2593;52.466;13.436;2023-04-08T05:33:40;99.23;;;35.00;;
5149;SDS011;2593;52.466;13.436;2023-04-08T05:36:06;115.43;;;38.57;;
5149;SDS011;2593;52.466;13.436;2023-04-08T05:38:31;100.63;;;37.90;;
5149;SDS011;2593;52.466;13.436;2023-04-08T05:40:57;95.00;;;35.73;;
5149;SDS011;2593;52.466;13.436;2023-04-08T05:43:23;108.63;;;40.60;;
5149;SDS011;2593;52.466;13.436;2023-04-08T05:45:48;96.13;;;37.23;;
5149;SDS011;2593;52.466;13.436;2023-04-08T05:48:15;108.67;;;35.97;;
5149;SDS011;2593;52.466;13.436;2023-04-08T05:50:40;104.37;;;38.20;;
5149;SDS011;2593;52.466;13.436;2023-04-08T05:53:08;111.30;;;36.43;;
5149;SDS011;2593;52.466;13.436;2023-04-08T05:55:34;115.97;;;38.00;;
5149;SDS011;2593;52.466;13.436;2023-04-08T05:57:59;104.67;;;37.03;;
5149;SDS011;2593;52.466;13.436;2023-04-08T06:00:25;95.10;;;36.50;;
5149;SDS011;2593;52.466;13.436;2023-04-08T06:02:51;99.43;;;38.07;;
5149;SDS011;2593;52.466;13.436;2023-04-08T06:05:16;111.77;;;38.70;;
5149;SDS011;2593;52.466;13.436;2023-04-08T06:07:43;99.70;;;36.93;;
5149;SDS011;2593;52.466;13.436;2023-04-08T06:10:09;118.03;;;40.83;;
5149;SDS011;2593;52.466;13.436;2023-04-08T06:12:35;103.03;;;38.77;;
5149;SDS011;2593;52.466;13.436;2023-04-08T06:15:02;108.63;;;38.20;;
5149;SDS011;2593;52.466;13.436;2023-04-08T06:17:28;86.27;;;35.47;;
5149;SDS011;2593;52.466;13.436;2023-04-08T06:19:54;101.30;;;38.60;;
5149;SDS011;2593;52.466;13.436;2023-04-08T06:22:20;95.93;;;34.77;;
5149;SDS011;2593;52.466;13.436;2023-04-08T06:24:46;95.77;;;35.83;;
5149;SDS011;2593;52.466;13.436;2023-04-08T06:27:12;84.93;;;36.03;;
5149;SDS011;2593;52.466;13.436;2023-04-08T06:29:38;93.03;;;33.27;;
5149;SDS011;2593;52.466;13.436;2023-04-08T06:32:03;99.37;;;34.50;;
5149;SDS011;2593;52.466;13.436;2023-04-08T06:34:30;79.83;;;33.90;;
5149;SDS011;2593;52.466;13.436;2023-04-08T06:36:55;101.90;;;39.20;;
5149;SDS011;2593;52.466;13.436;2023-04-08T06:39:21;100.67;;;38.23;;
5149;SDS011;2593;52.466;13.436;2023-04-08T06:41:47;98.40;;;35.83;;
5149;SDS011;2593;52.466;13.436;2023-04-08T06:44:13;90.40;;;36.60;;
5149;SDS011;2593;52.466;13.436;2023-04-08T06:46:38;94.50;;;34.73;;
5149;SDS011;2593;52.466;13.436;2023-04-08T06:49:04;91.07;;;35.43;;
5149;SDS011;2593;52.466;13.436;2023-04-08T06:51:31;103.10;;;36.50;;
5149;SDS011;2593;52.466;13.436;2023-04-08T06:53:56;90.03;;;33.40;;
5149;SDS011;2593;52.466;13.436;2023-04-08T06:56:22;92.57;;;38.10;;
5149;SDS011;2593;52.466;13.436;2023-04-08T06:58:50;78.50;;;34.83;;
5149;SDS011;2593;52.466;13.436;2023-04-08T07:01:16;88.30;;;34.90;;
5149;SDS011;2593;52.466;13.436;2023-04-08T07:03:42;78.77;;;32.70;;
5149;SDS011;2593;52.466;13.436;2023-04-08T07:06:08;86.93;;;33.93;;
5149;SDS011;2593;52.466;13.436;2023-04-08T07:08:33;95.63;;;35.37;;
5149;SDS011;2593;52.466;13.436;2023-04-08T07:11:00;81.93;;;35.20;;
5149;SDS011;2593;52.466;13.436;2023-04-08T07:13:26;80.27;;;33.00;;
5149;SDS011;2593;52.466;13.436;2023-04-08T07:15:52;84.27;;;34.60;;
5149;SDS011;2593;52.466;13.436;2023-04-08T07:18:17;94.03;;;34.80;;
5149;SDS011;2593;52.466;13.436;2023-04-08T07:20:49;86.43;;;34.30;;
5149;SDS011;2593;52.466;13.436;2023-04-08T07:23:15;78.70;;;32.60;;
5149;SDS011;2593;52.466;13.436;2023-04-08T07:25:40;92.90;;;35.50;;
5149;SDS011;2593;52.466;13.436;2023-04-08T07:28:06;70.07;;;33.03;;
5149;SDS011;2593;52.466;13.436;2023-04-08T07:30:32;85.20;;;32.17;;
5149;SDS011;2593;52.466;13.436;2023-04-08T07:32:57;82.30;;;33.53;;
5149;SDS011;2593;52.466;13.436;2023-04-08T07:35:23;80.50;;;32.30;;
5149;SDS011;2593;52.466;13.436;2023-04-08T07:37:50;91.87;;;33.83;;
5149;SDS011;2593;52.466;13.436;2023-04-08T07:40:16;79.70;;;32.23;;
5149;SDS011;2593;52.466;13.436;2023-04-08T07:42:42;81.80;;;32.70;;
5149;SDS011;2593;52.466;13.436;2023-04-08T07:45:08;75.63;;;31.80;;
5149;SDS011;2593;52.466;13.436;2023-04-08T07:47:34;88.83;;;33.97;;
5149;SDS011;2593;52.466;13.436;2023-04-08T07:50:00;85.17;;;32.67;;
5149;SDS011;2593;52.466;13.436;2023-04-08T07:52:26;82.00;;;32.40;;
5149;SDS011;2593;52.466;13.436;2023-04-08T07:54:53;84.30;;;35.03;;
5149;SDS011;2593;52.466;13.436;2023-04-08T07:57:19;89.63;;;34.00;;
5149;SDS011;2593;52.466;13.436;2023-04-08T07:59:45;73.60;;;31.07;;
5149;SDS011;2593;52.466;13.436;2023-04-08T08:02:11;80.43;;;34.00;;
5149;SDS011;2593;52.466;13.436;2023-04-08T08:04:36;77.60;;;33.57;;
5149;SDS011;2593;52.466;13.436;2023-04-08T08:07:02;72.73;;;31.23;;
5149;SDS011;2593;52.466;13.436;2023-04-08T08:09:28;74.97;;;31.63;;
5149;SDS011;2593;52.466;13.436;2023-04-08T08:11:53;73.53;;;31.13;;
5149;SDS011;2593;52.466;13.436;2023-04-08T08:14:19;78.17;;;31.20;;
5149;SDS011;2593;52.466;13.436;2023-04-08T08:16:45;69.80;;;30.60;;
5149;SDS011;2593;52.466;13.436;2023-04-08T08:19:12;70.27;;;30.77;;
5149;SDS011;2593;52.466;13.436;2023-04-08T08:21:38;69.90;;;28.93;;
5149;SDS011;2593;52.466;13.436;2023-04-08T08:24:04;70.70;;;30.90;;
5149;SDS011;2593;52.466;13.436;2023-04-08T08:26:30;69.07;;;30.10;;
5149;SDS011;2593;52.466;13.436;2023-04-08T08:28:59;62.10;;;29.90;;
5149;SDS011;2593;52.466;13.436;2023-04-08T08:31:25;65.13;;;30.83;;
5149;SDS011;2593;52.466;13.436;2023-04-08T08:33:51;68.73;;;31.27;;
5149;SDS011;2593;52.466;13.436;2023-04-08T08:36:16;67.13;;;31.00;;
5149;SDS011;2593;52.466;13.436;2023-04-08T08:38:42;63.13;;;28.67;;
5149;SDS011;2593;52.466;13.436;2023-04-08T08:41:08;71.50;;;29.33;;
5149;SDS011;2593;52.466;13.436;2023-04-08T08:43:33;72.47;;;29.73;;
5149;SDS011;2593;52.466;13.436;2023-04-08T08:45:59;65.73;;;28.60;;
5149;SDS011;2593;52.466;13.436;2023-04-08T08:48:25;62.73;;;30.57;;
5149;SDS011;2593;52.466;13.436;2023-04-08T08:50:51;67.77;;;31.80;;
5149;SDS011;2593;52.466;13.436;2023-04-08T08:53:17;59.20;;;29.27;;
5149;SDS011;2593;52.466;13.436;2023-04-08T08:55:44;63.83;;;29.87;;
5149;SDS011;2593;52.466;13.436;2023-04-08T08:58:10;60.60;;;27.50;;
5149;SDS011;2593;52.466;13.436;2023-04-08T09:00:36;68.13;;;27.80;;
5149;SDS011;2593;52.466;13.436;2023-04-08T09:05:51;45.90;;;25.87;;
5149;SDS011;2593;52.466;13.436;2023-04-08T09:08:35;50.90;;;26.37;;
5149;SDS011;2593;52.466;13.436;2023-04-08T09:11:17;46.53;;;26.43;;
5149;SDS011;2593;52.466;13.436;2023-04-08T09:13:47;60.53;;;26.97;;
5149;SDS011;2593;52.466;13.436;2023-04-08T09:16:17;56.17;;;27.73;;
5149;SDS011;2593;52.466;13.436;2023-04-08T09:18:44;55.47;;;27.43;;
5149;SDS011;2593;52.466;13.436;2023-04-08T09:21:11;50.70;;;26.50;;
5149;SDS011;2593;52.466;13.436;2023-04-08T09:26:17;45.80;;;24.50;;
5149;SDS011;2593;52.466;13.436;2023-04-08T09:29:01;49.63;;;23.80;;
5149;SDS011;2593;52.466;13.436;2023-04-08T09:31:30;56.57;;;27.20;;
5149;SDS011;2593;52.466;13.436;2023-04-08T09:33:57;50.13;;;25.00;;
5149;SDS011;2593;52.466;13.436;2023-04-08T09:36:24;52.53;;;25.80;;
5149;SDS011;2593;52.466;13.436;2023-04-08T09:38:51;53.83;;;26.57;;
5149;SDS011;2593;52.466;13.436;2023-04-08T09:41:17;47.40;;;25.97;;
5149;SDS011;2593;52.466;13.436;2023-04-08T09:43:48;53.47;;;27.53;;
5149;SDS011;2593;52.466;13.436;2023-04-08T09:46:16;66.70;;;29.33;;
5149;SDS011;2593;52.466;13.436;2023-04-08T09:48:51;44.50;;;23.87;;
5149;SDS011;2593;52.466;13.436;2023-04-08T09:51:26;56.50;;;26.30;;
5149;SDS011;2593;52.466;13.436;2023-04-08T09:54:01;50.10;;;25.43;;
5149;SDS011;2593;52.466;13.436;2023-04-08T09:56:34;56.47;;;25.50;;
5149;SDS011;2593;52.466;13.436;2023-04-08T09:59:12;46.13;;;24.10;;
5149;SDS011;2593;52.466;13.436;2023-04-08T10:01:43;42.33;;;23.23;;
5149;SDS011;2593;52.466;13.436;2023-04-08T10:04:14;37.50;;;21.93;;
5149;SDS011;2593;52.466;13.436;2023-04-08T10:06:42;36.70;;;20.77;;
5149;SDS011;2593;52.466;13.436;2023-04-08T10:09:08;37.07;;;21.27;;
5149;SDS011;2593;52.466;13.436;2023-04-08T10:11:34;40.67;;;21.23;;
5149;SDS011;2593;52.466;13.436;2023-04-08T10:14:01;39.83;;;21.83;;
5149;SDS011;2593;52.466;13.436;2023-04-08T10:16:27;43.03;;;21.13;;
5149;SDS011;2593;52.466;13.436;2023-04-08T10:18:54;49.57;;;24.60;;
5149;SDS011;2593;52.466;13.436;2023-04-08T10:21:30;47.93;;;25.60;;
5149;SDS011;2593;52.466;13.436;2023-04-08T10:23:57;47.83;;;23.70;;
5149;SDS011;2593;52.466;13.436;2023-04-08T10:26:35;53.17;;;26.57;;
5149;SDS011;2593;52.466;13.436;2023-04-08T10:29:37;40.53;;;21.60;;
5149;SDS011;2593;52.466;13.436;2023-04-08T10:31:56;52.80;;;24.17;;
5149;SDS011;2593;52.466;13.436;2023-04-08T10:34:22;46.10;;;23.13;;
5149;SDS011;2593;52.466;13.436;2023-04-08T10:36:51;42.43;;;24.23;;
5149;SDS011;2593;52.466;13.436;2023-04-08T10:39:19;52.70;;;26.87;;
5149;SDS011;2593;52.466;13.436;2023-04-08T10:41:46;53.80;;;26.20;;
5149;SDS011;2593;52.466;13.436;2023-04-08T10:44:19;49.73;;;24.37;;
5149;SDS011;2593;52.466;13.436;2023-04-08T10:46:45;46.20;;;24.00;;
5149;SDS011;2593;52.466;13.436;2023-04-08T10:49:13;47.43;;;22.50;;
5149;SDS011;2593;52.466;13.436;2023-04-08T10:51:42;39.70;;;20.50;;
5149;SDS011;2593;52.466;13.436;2023-04-08T10:54:12;36.90;;;20.10;;
5149;SDS011;2593;52.466;13.436;2023-04-08T10:56:42;46.50;;;23.63;;
5149;SDS011;2593;52.466;13.436;2023-04-08T10:59:10;38.57;;;22.37;;
5149;SDS011;2593;52.466;13.436;2023-04-08T11:01:38;38.20;;;21.87;;
5149;SDS011;2593;52.466;13.436;2023-04-08T11:04:11;42.50;;;21.57;;
5149;SDS011;2593;52.466;13.436;2023-04-08T11:06:42;40.43;;;21.13;;
5149;SDS011;2593;52.466;13.436;2023-04-08T11:09:10;39.53;;;21.60;;
5149;SDS011;2593;52.466;13.436;2023-04-08T11:11:36;46.37;;;23.73;;
5149;SDS011;2593;52.466;13.436;2023-04-08T11:14:02;38.80;;;20.00;;
5149;SDS011;2593;52.466;13.436;2023-04-08T11:16:28;39.40;;;21.10;;
5149;SDS011;2593;52.466;13.436;2023-04-08T11:18:54;40.13;;;21.73;;
5149;SDS011;2593;52.466;13.436;2023-04-08T11:21:23;44.07;;;22.30;;
5149;SDS011;2593;52.466;13.436;2023-04-08T11:23:53;40.67;;;21.00;;
5149;SDS011;2593;52.466;13.436;2023-04-08T11:26:19;43.20;;;22.03;;
5149;SDS011;2593;52.466;13.436;2023-04-08T11:28:45;33.20;;;20.20;;
5149;SDS011;2593;52.466;13.436;2023-04-08T11:31:14;40.90;;;21.00;;
5149;SDS011;2593;52.466;13.436;2023-04-08T11:33:47;43.73;;;22.13;;
5149;SDS011;2593;52.466;13.436;2023-04-08T11:36:13;51.53;;;24.93;;
5149;SDS011;2593;52.466;13.436;2023-04-08T11:38:42;44.60;;;23.20;;
5149;SDS011;2593;52.466;13.436;2023-04-08T11:41:08;42.53;;;24.37;;
5149;SDS011;2593;52.466;13.436;2023-04-08T11:43:35;43.37;;;22.30;;
5149;SDS011;2593;52.466;13.436;2023-04-08T11:46:07;36.33;;;20.30;;
5149;SDS011;2593;52.466;13.436;2023-04-08T11:48:36;42.13;;;20.63;;
5149;SDS011;2593;52.466;13.436;2023-04-08T11:51:04;45.40;;;23.30;;
5149;SDS011;2593;52.466;13.436;2023-04-08T11:53:33;32.27;;;19.50;;
5149;SDS011;2593;52.466;13.436;2023-04-08T11:56:18;35.07;;;19.57;;
5149;SDS011;2593;52.466;13.436;2023-04-08T11:58:45;29.90;;;17.10;;
5149;SDS011;2593;52.466;13.436;2023-04-08T12:01:11;29.57;;;16.53;;
5149;SDS011;2593;52.466;13.436;2023-04-08T12:03:37;22.27;;;15.20;;
5149;SDS011;2593;52.466;13.436;2023-04-08T12:06:03;22.17;;;14.13;;
5149;SDS011;2593;52.466;13.436;2023-04-08T12:08:33;20.47;;;14.07;;
5149;SDS011;2593;52.466;13.436;2023-04-08T12:10:59;25.40;;;15.00;;
5149;SDS011;2593;52.466;13.436;2023-04-08T12:13:25;20.43;;;11.87;;
5149;SDS011;2593;52.466;13.436;2023-04-08T12:15:51;19.37;;;11.77;;
5149;SDS011;2593;52.466;13.436;2023-04-08T12:18:17;18.50;;;12.50;;
5149;SDS011;2593;52.466;13.436;2023-04-08T12:20:42;14.97;;;10.30;;
5149;SDS011;2593;52.466;13.436;2023-04-08T12:23:08;23.47;;;13.90;;
5149;SDS011;2593;52.466;13.436;2023-04-08T12:25:33;14.83;;;11.10;;
5149;SDS011;2593;52.466;13.436;2023-04-08T12:27:59;18.27;;;11.03;;
5149;SDS011;2593;52.466;13.436;2023-04-08T12:30:25;18.93;;;12.30;;
5149;SDS011;2593;52.466;13.436;2023-04-08T12:32:50;16.30;;;10.63;;
5149;SDS011;2593;52.466;13.436;2023-04-08T12:35:19;20.40;;;11.67;;
5149;SDS011;2593;52.466;13.436;2023-04-08T12:37:44;18.67;;;10.90;;
5149;SDS011;2593;52.466;13.436;2023-04-08T12:40:10;17.13;;;11.27;;
5149;SDS011;2593;52.466;13.436;2023-04-08T12:42:36;15.20;;;10.67;;
5149;SDS011;2593;52.466;13.436;2023-04-08T12:45:02;14.93;;;10.13;;
5149;SDS011;2593;52.466;13.436;2023-04-08T12:47:27;21.57;;;13.10;;
5149;SDS011;2593;52.466;13.436;2023-04-08T12:49:53;18.37;;;13.07;;
5149;SDS011;2593;52.466;13.436;2023-04-08T12:52:19;23.70;;;13.70;;
5149;SDS011;2593;52.466;13.436;2023-04-08T12:54:44;16.60;;;10.83;;
5149;SDS011;2593;52.466;13.436;2023-04-08T12:57:10;19.13;;;11.80;;
5149;SDS011;2593;52.466;13.436;2023-04-08T12:59:36;19.03;;;12.30;;
5149;SDS011;2593;52.466;13.436;2023-04-08T13:02:03;14.10;;;10.70;;
5149;SDS011;2593;52.466;13.436;2023-04-08T13:04:29;19.37;;;12.43;;
5149;SDS011;2593;52.466;13.436;2023-04-08T13:06:54;19.67;;;12.33;;
5149;SDS011;2593;52.466;13.436;2023-04-08T13:09:21;16.70;;;11.77;;
5149;SDS011;2593;52.466;13.436;2023-04-08T13:11:46;16.30;;;11.03;;
5149;SDS011;2593;52.466;13.436;2023-04-08T13:14:12;17.73;;;11.37;;
5149;SDS011;2593;52.466;13.436;2023-04-08T13:16:38;16.10;;;11.67;;
5149;SDS011;2593;52.466;13.436;2023-04-08T13:19:03;21.60;;;12.77;;
5149;SDS011;2593;52.466;13.436;2023-04-08T13:21:29;16.90;;;11.23;;
5149;SDS011;2593;52.466;13.436;2023-04-08T13:23:55;15.97;;;11.13;;
5149;SDS011;2593;52.466;13.436;2023-04-08T13:26:21;18.33;;;11.10;;
5149;SDS011;2593;52.466;13.436;2023-04-08T13:28:46;15.70;;;10.37;;
5149;SDS011;2593;52.466;13.436;2023-04-08T13:31:12;15.37;;;11.43;;
5149;SDS011;2593;52.466;13.436;2023-04-08T13:33:38;16.10;;;11.53;;
5149;SDS011;2593;52.466;13.436;2023-04-08T13:36:03;13.87;;;10.53;;
5149;SDS011;2593;52.466;13.436;2023-04-08T13:38:29;14.63;;;11.30;;
5149;SDS011;2593;52.466;13.436;2023-04-08T13:40:55;15.47;;;12.07;;
5149;SDS011;2593;52.466;13.436;2023-04-08T13:43:21;15.73;;;11.10;;
5149;SDS011;2593;52.466;13.436;2023-04-08T13:45:46;18.27;;;11.90;;
5149;SDS011;2593;52.466;13.436;2023-04-08T13:48:12;19.17;;;12.97;;
5149;SDS011;2593;52.466;13.436;2023-04-08T13:50:38;15.13;;;11.77;;
5149;SDS011;2593;52.466;13.436;2023-04-08T13:53:04;20.87;;;12.87;;
5149;SDS011;2593;52.466;13.436;2023-04-08T13:55:29;21.77;;;12.50;;
5149;SDS011;2593;52.466;13.436;2023-04-08T13:57:55;15.80;;;11.40;;
5149;SDS011;2593;52.466;13.436;2023-04-08T14:00:21;14.23;;;11.53;;
5149;SDS011;2593;52.466;13.436;2023-04-08T14:02:47;21.20;;;12.70;;
5149;SDS011;2593;52.466;13.436;2023-04-08T14:05:14;14.57;;;10.03;;
5149;SDS011;2593;52.466;13.436;2023-04-08T14:07:39;20.83;;;12.30;;
5149;SDS011;2593;52.466;13.436;2023-04-08T14:10:05;18.80;;;12.47;;
5149;SDS011;2593;52.466;13.436;2023-04-08T14:12:31;17.30;;;11.70;;
5149;SDS011;2593;52.466;13.436;2023-04-08T14:14:57;15.17;;;11.80;;
5149;SDS011;2593;52.466;13.436;2023-04-08T14:17:23;16.00;;;11.90;;
5149;SDS011;2593;52.466;13.436;2023-04-08T14:19:48;19.67;;;13.10;;
5149;SDS011;2593;52.466;13.436;2023-04-08T14:22:15;16.67;;;12.33;;
5149;SDS011;2593;52.466;13.436;2023-04-08T14:24:41;21.03;;;13.13;;
5149;SDS011;2593;52.466;13.436;2023-04-08T14:27:07;21.17;;;12.97;;
5149;SDS011;2593;52.466;13.436;2023-04-08T14:29:33;16.63;;;12.00;;
5149;SDS011;2593;52.466;13.436;2023-04-08T14:31:58;16.10;;;12.13;;
5149;SDS011;2593;52.466;13.436;2023-04-08T14:34:24;14.77;;;10.93;;
5149;SDS011;2593;52.466;13.436;2023-04-08T14:36:50;14.30;;;11.10;;